Time;durP1;ratioP1;P1;durP2;ratioP2;P2;SDS_P1;SDS_P2;PMS_P1;PMS_P2;Temp;Humidity;BMP_temperature;BMP_pressure;BME280_temperature;BME280_humidity;BME280_pressure;Samples;Min_cycle;Max_cycle;Signal;HPM_P1;HPM_P2
2022/04/07 00:02:24;;;;;;;5.23;2.93;;;;;;;;;;4994125;28;20447;-78
2022/04/07 00:04:51;;;;;;;4.40;3.10;;;;;;;;;;5000093;28;20439;-84
2022/04/07 00:07:18;;;;;;;3.10;2.60;;;;;;;;;;5000136;28;20514;-83
2022/04/07 00:09:45;;;;;;;2.70;2.50;;;;;;;;;;5012806;28;20453;-80
2022/04/07 00:12:13;;;;;;;4.80;2.33;;;;;;;;;;5013415;28;20434;-79
2022/04/07 00:14:41;;;;;;;4.10;2.67;;;;;;;;;;5013116;28;20447;-82
2022/04/07 00:17:08;;;;;;;4.00;2.83;;;;;;;;;;5014351;28;20451;-82
2022/04/07 00:19:36;;;;;;;3.90;2.70;;;;;;;;;;5007644;28;20463;-79
2022/04/07 00:22:03;;;;;;;3.10;1.97;;;;;;;;;;4995608;28;20922;-81
2022/04/07 00:24:30;;;;;;;3.23;2.10;;;;;;;;;;4995699;28;20960;-77
2022/04/07 00:26:57;;;;;;;2.40;2.10;;;;;;;;;;4999409;28;20479;-80
2022/04/07 00:29:24;;;;;;;2.33;1.60;;;;;;;;;;4999801;28;20810;-79
2022/04/07 00:31:56;;;;;;;2.13;1.93;;;;;;;;;;4993971;28;20555;-80
2022/04/07 00:34:23;;;;;;;6.57;2.60;;;;;;;;;;4993204;28;20442;-80
2022/04/07 00:36:51;;;;;;;2.47;1.80;;;;;;;;;;4994465;28;21072;-82
2022/04/07 00:39:18;;;;;;;2.73;1.90;;;;;;;;;;4993971;28;20491;-83
2022/04/07 00:41:45;;;;;;;2.20;1.73;;;;;;;;;;4993001;28;20487;-84
2022/04/07 00:44:13;;;;;;;1.80;1.40;;;;;;;;;;4995522;28;20937;-81
2022/04/07 00:46:41;;;;;;;2.40;1.50;;;;;;;;;;4995359;28;20487;-82
2022/04/07 00:49:10;;;;;;;2.07;1.40;;;;;;;;;;4981333;28;20455;-82
2022/04/07 00:51:39;;;;;;;1.83;1.17;;;;;;;;;;4999027;28;20432;-77
2022/04/07 00:54:07;;;;;;;1.60;1.50;;;;;;;;;;5010914;28;20982;-78
2022/04/07 00:56:34;;;;;;;2.27;1.43;;;;;;;;;;5012849;28;20435;-77
2022/04/07 00:59:03;;;;;;;1.40;1.30;;;;;;;;;;5012570;28;20459;-77
2022/04/07 01:01:30;;;;;;;1.47;1.10;;;;;;;;;;5013118;28;20435;-78
2022/04/07 01:03:58;;;;;;;2.37;1.37;;;;;;;;;;5007875;28;20455;-78
2022/04/07 01:06:27;;;;;;;2.20;1.57;;;;;;;;;;4994717;28;20498;-77
2022/04/07 01:08:55;;;;;;;2.40;1.33;;;;;;;;;;4994815;28;20836;-79
2022/04/07 01:11:24;;;;;;;1.97;1.60;;;;;;;;;;4998243;28;20837;-77
2022/04/07 01:13:52;;;;;;;1.87;1.27;;;;;;;;;;4998831;28;20447;-77
2022/04/07 01:16:19;;;;;;;2.73;1.50;;;;;;;;;;4993579;28;20443;-77
2022/04/07 01:18:47;;;;;;;1.87;1.40;;;;;;;;;;5012252;28;20458;-77
2022/04/07 01:21:15;;;;;;;1.63;1.10;;;;;;;;;;5012429;28;20924;-77
2022/04/07 01:23:45;;;;;;;1.80;1.30;;;;;;;;;;5012940;28;20502;-77
2022/04/07 01:26:14;;;;;;;2.50;1.40;;;;;;;;;;5007191;28;20825;-77
2022/04/07 01:28:47;;;;;;;1.37;1.27;;;;;;;;;;4994346;28;20459;-78
2022/04/07 01:31:14;;;;;;;2.67;1.50;;;;;;;;;;4994436;28;20444;-78
2022/04/07 01:33:41;;;;;;;1.37;1.27;;;;;;;;;;4997862;28;20436;-77
2022/04/07 01:36:09;;;;;;;4.53;1.30;;;;;;;;;;4998514;28;20801;-77
2022/04/07 01:38:36;;;;;;;1.30;1.20;;;;;;;;;;4992304;28;20866;-77
2022/04/07 01:41:03;;;;;;;1.40;1.10;;;;;;;;;;4991816;28;20447;-78
2022/04/07 01:43:32;;;;;;;1.57;1.20;;;;;;;;;;4992013;28;20447;-77
2022/04/07 01:45:59;;;;;;;2.80;1.40;;;;;;;;;;4992379;28;20444;-78
2022/04/07 01:48:26;;;;;;;1.90;1.40;;;;;;;;;;4991989;28;20467;-77
2022/04/07 01:50:53;;;;;;;1.63;1.53;;;;;;;;;;4994038;28;20444;-77
2022/04/07 01:53:20;;;;;;;4.13;1.37;;;;;;;;;;4993926;28;20447;-77
2022/04/07 01:55:52;;;;;;;2.40;1.30;;;;;;;;;;4996770;28;20476;-77
2022/04/07 01:58:19;;;;;;;1.53;1.27;;;;;;;;;;4998073;28;20463;-77
2022/04/07 02:00:48;;;;;;;3.23;1.47;;;;;;;;;;5008785;28;20443;-77
2022/04/07 02:03:15;;;;;;;2.90;1.30;;;;;;;;;;5010792;28;20535;-77
2022/04/07 02:05:42;;;;;;;1.30;1.20;;;;;;;;;;5011382;28;20443;-77
2022/04/07 02:08:09;;;;;;;3.53;1.40;;;;;;;;;;5011670;28;20491;-77
2022/04/07 02:10:36;;;;;;;2.50;1.50;;;;;;;;;;5008075;28;20471;-77
2022/04/07 02:13:04;;;;;;;2.93;1.60;;;;;;;;;;4993566;28;20450;-78
2022/04/07 02:15:31;;;;;;;2.13;1.10;;;;;;;;;;4993293;28;20440;-77
2022/04/07 02:17:59;;;;;;;3.20;1.33;;;;;;;;;;4996704;28;20546;-77
2022/04/07 02:20:26;;;;;;;1.70;1.30;;;;;;;;;;4997781;28;20443;-78
2022/04/07 02:22:54;;;;;;;2.07;1.23;;;;;;;;;;5008205;28;20431;-77
2022/04/07 02:25:23;;;;;;;2.10;1.50;;;;;;;;;;5010154;28;20490;-76
2022/04/07 02:27:51;;;;;;;2.23;1.40;;;;;;;;;;5010906;28;20497;-77
2022/04/07 02:30:18;;;;;;;1.80;1.17;;;;;;;;;;5011670;28;20443;-77
2022/04/07 02:32:45;;;;;;;1.70;1.30;;;;;;;;;;5008168;28;20439;-77
2022/04/07 02:35:14;;;;;;;2.23;1.30;;;;;;;;;;4993315;28;20515;-77
2022/04/07 02:37:42;;;;;;;2.07;1.40;;;;;;;;;;4993150;28;20459;-77
2022/04/07 02:40:10;;;;;;;4.53;1.30;;;;;;;;;;4995972;28;20463;-77
2022/04/07 02:42:37;;;;;;;1.47;1.33;;;;;;;;;;4980014;28;20905;-78
2022/04/07 02:45:05;;;;;;;1.87;1.17;;;;;;;;;;5007018;28;20458;-77
2022/04/07 02:47:32;;;;;;;1.93;1.03;;;;;;;;;;5010088;28;20906;-77
2022/04/07 02:49:59;;;;;;;2.33;1.10;;;;;;;;;;5010419;28;20928;-78
2022/04/07 02:52:28;;;;;;;2.67;1.30;;;;;;;;;;5010696;28;20924;-77
2022/04/07 02:54:55;;;;;;;1.73;1.40;;;;;;;;;;5008310;28;20467;-78
2022/04/07 02:57:23;;;;;;;1.63;1.00;;;;;;;;;;4992458;28;20940;-77
2022/04/07 02:59:50;;;;;;;2.17;1.00;;;;;;;;;;4975743;28;20835;-78
2022/04/07 03:02:18;;;;;;;1.10;1.00;;;;;;;;;;4995474;28;20434;-77
2022/04/07 03:04:45;;;;;;;2.90;1.23;;;;;;;;;;4996764;28;20427;-78
2022/04/07 03:07:12;;;;;;;1.57;1.00;;;;;;;;;;5005129;28;20482;-76
2022/04/07 03:09:41;;;;;;;1.70;1.20;;;;;;;;;;5010034;28;20466;-78
2022/04/07 03:12:09;;;;;;;4.60;1.10;;;;;;;;;;5010277;28;20462;-77
2022/04/07 03:14:36;;;;;;;1.10;1.00;;;;;;;;;;5010385;28;20461;-78
2022/04/07 03:17:03;;;;;;;1.17;1.07;;;;;;;;;;5010059;28;20446;-77
2022/04/07 03:19:31;;;;;;;1.47;1.00;;;;;;;;;;4991894;28;20561;-77
2022/04/07 03:21:58;;;;;;;2.27;1.10;;;;;;;;;;4992449;28;20439;-78
2022/04/07 03:24:25;;;;;;;2.77;1.10;;;;;;;;;;4995008;28;20431;-78
2022/04/07 03:26:54;;;;;;;1.40;1.27;;;;;;;;;;4996632;28;20538;-77
2022/04/07 03:29:21;;;;;;;2.13;1.10;;;;;;;;;;4975231;28;20452;-78
2022/04/07 03:31:48;;;;;;;1.20;1.10;;;;;;;;;;4990118;28;20463;-78
2022/04/07 03:34:16;;;;;;;2.10;1.40;;;;;;;;;;4989983;28;20452;-77
2022/04/07 03:36:43;;;;;;;3.77;1.30;;;;;;;;;;4989062;28;20440;-78
2022/04/07 03:39:10;;;;;;;2.50;1.30;;;;;;;;;;4990421;28;20519;-78
2022/04/07 03:41:37;;;;;;;1.30;1.17;;;;;;;;;;4991425;28;20482;-76
2022/04/07 03:44:09;;;;;;;1.97;1.10;;;;;;;;;;4992240;28;20439;-77
2022/04/07 03:46:36;;;;;;;1.60;1.43;;;;;;;;;;4993948;28;20442;-76
2022/04/07 03:49:04;;;;;;;2.30;1.30;;;;;;;;;;4996061;28;20439;-77
2022/04/07 03:51:31;;;;;;;1.60;1.03;;;;;;;;;;4985607;28;20442;-77
2022/04/07 03:53:59;;;;;;;2.00;1.10;;;;;;;;;;5009605;28;20848;-77
2022/04/07 03:56:26;;;;;;;2.27;1.00;;;;;;;;;;5009674;28;20493;-78
2022/04/07 03:58:53;;;;;;;3.47;1.27;;;;;;;;;;5009707;28;20474;-77
2022/04/07 04:01:22;;;;;;;1.50;1.17;;;;;;;;;;5009867;28;20446;-77
2022/04/07 04:03:49;;;;;;;1.90;0.93;;;;;;;;;;4993960;28;20458;-78
2022/04/07 04:06:16;;;;;;;2.47;1.60;;;;;;;;;;4992083;28;20452;-77
2022/04/07 04:08:43;;;;;;;1.27;1.00;;;;;;;;;;4993462;28;20490;-77
2022/04/07 04:11:12;;;;;;;1.60;1.00;;;;;;;;;;4996103;28;20523;-77
2022/04/07 04:13:39;;;;;;;1.40;0.90;;;;;;;;;;5002519;28;20439;-77
2022/04/07 04:16:08;;;;;;;1.83;1.20;;;;;;;;;;5009070;28;20447;-77
2022/04/07 04:18:36;;;;;;;3.90;1.10;;;;;;;;;;5009097;28;20466;-77
2022/04/07 04:21:03;;;;;;;1.47;1.00;;;;;;;;;;5009309;28;20447;-76
2022/04/07 04:23:31;;;;;;;2.23;0.93;;;;;;;;;;5009815;28;20442;-78
2022/04/07 04:25:58;;;;;;;2.07;1.10;;;;;;;;;;4994302;28;20471;-77
2022/04/07 04:28:25;;;;;;;1.50;0.93;;;;;;;;;;4991471;28;20499;-77
2022/04/07 04:30:52;;;;;;;1.73;0.97;;;;;;;;;;4992903;28;20467;-77
2022/04/07 04:33:20;;;;;;;1.10;1.00;;;;;;;;;;4995904;28;20431;-78
2022/04/07 04:35:48;;;;;;;1.47;1.10;;;;;;;;;;5001248;28;20437;-77
2022/04/07 04:38:15;;;;;;;1.10;1.00;;;;;;;;;;5009088;28;20459;-78
2022/04/07 04:40:45;;;;;;;1.90;1.20;;;;;;;;;;5009355;28;20451;-79
2022/04/07 04:43:12;;;;;;;1.17;1.07;;;;;;;;;;5009067;28;20449;-77
2022/04/07 04:45:39;;;;;;;7.97;1.23;;;;;;;;;;5009771;28;20435;-77
2022/04/07 04:48:06;;;;;;;1.77;1.10;;;;;;;;;;4996778;28;20985;-78
2022/04/07 04:50:33;;;;;;;1.30;1.20;;;;;;;;;;4995266;28;20440;-78
2022/04/07 04:53:02;;;;;;;1.40;0.90;;;;;;;;;;4996313;28;20450;-77
2022/04/07 04:55:29;;;;;;;1.77;1.30;;;;;;;;;;5001060;28;20470;-78
2022/04/07 04:57:56;;;;;;;2.27;1.20;;;;;;;;;;4996819;28;20456;-78
2022/04/07 05:00:23;;;;;;;1.20;1.10;;;;;;;;;;4992968;28;20439;-77
2022/04/07 05:02:50;;;;;;;1.50;1.20;;;;;;;;;;4992906;28;20443;-77
2022/04/07 05:05:18;;;;;;;1.53;0.90;;;;;;;;;;4992908;28;21119;-77
2022/04/07 05:07:45;;;;;;;1.93;1.00;;;;;;;;;;4993073;28;20988;-78
2022/04/07 05:10:13;;;;;;;2.23;1.20;;;;;;;;;;4993631;28;20475;-79
2022/04/07 05:12:40;;;;;;;1.40;1.20;;;;;;;;;;4994689;28;20447;-78
2022/04/07 05:15:08;;;;;;;1.30;1.10;;;;;;;;;;4995419;28;20510;-77
2022/04/07 05:17:35;;;;;;;2.87;1.10;;;;;;;;;;4999302;28;20434;-79
2022/04/07 05:20:02;;;;;;;1.97;1.00;;;;;;;;;;5002003;28;20436;-77
2022/04/07 05:22:29;;;;;;;1.40;1.07;;;;;;;;;;5011753;28;20945;-79
2022/04/07 05:24:57;;;;;;;1.20;1.03;;;;;;;;;;5011530;28;20438;-77
2022/04/07 05:27:25;;;;;;;1.47;1.13;;;;;;;;;;5012167;28;20490;-80
2022/04/07 05:29:52;;;;;;;1.10;1.00;;;;;;;;;;5012607;28;20447;-78
2022/04/07 05:32:20;;;;;;;2.37;1.17;;;;;;;;;;5001918;28;20460;-78
2022/04/07 05:34:47;;;;;;;2.23;1.03;;;;;;;;;;4994345;28;21077;-77
2022/04/07 05:37:14;;;;;;;2.13;1.07;;;;;;;;;;4994881;28;21110;-78
2022/04/07 05:39:41;;;;;;;2.30;1.20;;;;;;;;;;4998358;28;20547;-79
2022/04/07 05:42:08;;;;;;;2.00;1.10;;;;;;;;;;4997318;28;20436;-78
2022/04/07 05:44:37;;;;;;;1.37;1.00;;;;;;;;;;4991555;28;20443;-78
2022/04/07 05:47:04;;;;;;;3.33;1.23;;;;;;;;;;4991745;28;20448;-78
2022/04/07 05:49:31;;;;;;;1.90;1.10;;;;;;;;;;4991899;28;20468;-78
2022/04/07 05:52:01;;;;;;;1.00;0.90;;;;;;;;;;4991875;28;20443;-78
2022/04/07 05:54:28;;;;;;;1.83;1.20;;;;;;;;;;4992047;28;20479;-78
2022/04/07 05:56:55;;;;;;;2.33;1.20;;;;;;;;;;4980607;28;20428;-78
2022/04/07 05:59:23;;;;;;;2.00;0.93;;;;;;;;;;4996893;28;20471;-80
2022/04/07 06:01:51;;;;;;;1.10;1.00;;;;;;;;;;4991237;28;20495;-78
2022/04/07 06:04:18;;;;;;;1.63;1.10;;;;;;;;;;4974262;28;20937;-78
2022/04/07 06:06:46;;;;;;;1.63;1.10;;;;;;;;;;4991497;28;20444;-78
2022/04/07 06:09:13;;;;;;;1.87;1.07;;;;;;;;;;4992439;28;20932;-81
2022/04/07 06:11:40;;;;;;;1.30;1.10;;;;;;;;;;4992049;28;20510;-81
2022/04/07 06:14:07;;;;;;;2.60;1.30;;;;;;;;;;4994221;28;20455;-79
2022/04/07 06:16:35;;;;;;;1.30;1.00;;;;;;;;;;4993673;28;20436;-78
2022/04/07 06:19:03;;;;;;;2.73;1.37;;;;;;;;;;4997296;28;20479;-80
2022/04/07 06:21:30;;;;;;;2.20;1.40;;;;;;;;;;4998601;28;20435;-79
2022/04/07 06:23:58;;;;;;;6.73;1.30;;;;;;;;;;5009871;28;20447;-81
2022/04/07 06:26:25;;;;;;;3.10;1.50;;;;;;;;;;4993267;28;20439;-80
2022/04/07 06:28:53;;;;;;;3.73;1.30;;;;;;;;;;5010814;28;20529;-78
2022/04/07 06:31:20;;;;;;;3.27;1.30;;;;;;;;;;5011315;28;20492;-80
2022/04/07 06:33:48;;;;;;;1.33;1.20;;;;;;;;;;5004495;28;20456;-78
2022/04/07 06:36:20;;;;;;;1.10;1.00;;;;;;;;;;4993127;28;20452;-83
2022/04/07 06:38:47;;;;;;;1.67;1.27;;;;;;;;;;4993288;28;20980;-80
2022/04/07 06:41:14;;;;;;;2.43;1.20;;;;;;;;;;4996820;28;21311;-82
2022/04/07 06:43:42;;;;;;;1.70;1.13;;;;;;;;;;4996898;28;20447;-81
2022/04/07 06:46:12;;;;;;;1.77;1.27;;;;;;;;;;4990255;28;20860;-80
2022/04/07 06:48:39;;;;;;;1.30;1.10;;;;;;;;;;4990713;28;20491;-82
2022/04/07 06:51:06;;;;;;;1.30;1.00;;;;;;;;;;4990868;28;20440;-83
2022/04/07 06:53:36;;;;;;;2.80;1.10;;;;;;;;;;4990991;28;20921;-80
2022/04/07 06:56:03;;;;;;;1.77;1.10;;;;;;;;;;4991045;28;20479;-79
2022/04/07 06:58:30;;;;;;;1.70;1.10;;;;;;;;;;4992490;28;20972;-79
2022/04/07 07:00:57;;;;;;;2.17;1.33;;;;;;;;;;4992498;28;20454;-83
2022/04/07 07:03:24;;;;;;;0.90;0.80;;;;;;;;;;4996245;28;20431;-80
2022/04/07 07:05:53;;;;;;;2.47;1.20;;;;;;;;;;4996842;28;20514;-81
2022/04/07 07:08:22;;;;;;;1.30;1.00;;;;;;;;;;4970287;28;20588;-80
2022/04/07 07:10:51;;;;;;;1.40;1.00;;;;;;;;;;4970307;28;20871;-78
2022/04/07 07:13:20;;;;;;;1.20;1.10;;;;;;;;;;4953795;28;20876;-82
2022/04/07 07:15:50;;;;;;;1.30;0.90;;;;;;;;;;4954080;28;20861;-81
2022/04/07 07:18:17;;;;;;;0.93;0.80;;;;;;;;;;4979188;28;20480;-78
2022/04/07 07:20:45;;;;;;;1.10;0.97;;;;;;;;;;4992380;28;20491;-80
2022/04/07 07:23:12;;;;;;;1.20;1.00;;;;;;;;;;4992385;28;20452;-81
2022/04/07 07:25:39;;;;;;;1.80;1.00;;;;;;;;;;4996111;28;20522;-81
2022/04/07 07:28:09;;;;;;;1.80;1.10;;;;;;;;;;4996431;28;20476;-81
2022/04/07 07:30:37;;;;;;;1.43;0.90;;;;;;;;;;4970476;28;20460;-79
2022/04/07 07:33:04;;;;;;;1.53;1.00;;;;;;;;;;4970583;28;20854;-80
2022/04/07 07:35:31;;;;;;;1.50;1.00;;;;;;;;;;4953673;28;20449;-79
2022/04/07 07:37:59;;;;;;;1.20;0.90;;;;;;;;;;4971206;28;20461;-81
2022/04/07 07:40:29;;;;;;;1.10;1.00;;;;;;;;;;4960840;28;20440;-82
2022/04/07 07:42:56;;;;;;;1.43;0.90;;;;;;;;;;4991840;28;20811;-80
2022/04/07 07:45:26;;;;;;;1.10;0.90;;;;;;;;;;4978892;28;20444;-78
2022/04/07 07:47:53;;;;;;;1.23;0.87;;;;;;;;;;4991411;28;20559;-79
2022/04/07 07:50:21;;;;;;;1.13;0.80;;;;;;;;;;4973344;28;20452;-78
2022/04/07 07:52:48;;;;;;;1.70;0.70;;;;;;;;;;4990048;28;20443;-79
2022/04/07 07:55:15;;;;;;;1.83;0.80;;;;;;;;;;4973252;28;20482;-79
2022/04/07 07:57:43;;;;;;;1.33;0.80;;;;;;;;;;4989942;28;20479;-78
2022/04/07 08:00:12;;;;;;;1.73;0.90;;;;;;;;;;4991529;28;20440;-81
2022/04/07 08:02:40;;;;;;;1.30;0.80;;;;;;;;;;4991788;28;20495;-80
2022/04/07 08:05:08;;;;;;;1.00;0.83;;;;;;;;;;4993356;28;20448;-79
2022/04/07 08:07:39;;;;;;;1.50;1.03;;;;;;;;;;4995517;28;20807;-80
2022/04/07 08:10:10;;;;;;;1.40;0.87;;;;;;;;;;5004071;28;20490;-80
2022/04/07 08:12:38;;;;;;;1.53;1.03;;;;;;;;;;5009151;28;20794;-81
2022/04/07 08:15:05;;;;;;;0.93;0.80;;;;;;;;;;5009270;28;20798;-81
2022/04/07 08:17:33;;;;;;;3.20;0.80;;;;;;;;;;5009709;28;20837;-79
2022/04/07 08:20:02;;;;;;;1.10;0.90;;;;;;;;;;5007849;28;20485;-78
2022/04/07 08:22:30;;;;;;;1.00;0.90;;;;;;;;;;4992060;28;20443;-82
2022/04/07 08:24:57;;;;;;;1.00;0.90;;;;;;;;;;4988775;28;20550;-81
2022/04/07 08:27:24;;;;;;;1.00;0.90;;;;;;;;;;4997644;28;20445;-78
2022/04/07 08:29:52;;;;;;;1.10;0.90;;;;;;;;;;4999732;28;21157;-80
2022/04/07 08:32:19;;;;;;;1.77;0.70;;;;;;;;;;4995325;28;20510;-82
2022/04/07 08:34:49;;;;;;;1.47;0.80;;;;;;;;;;4993201;28;20451;-81
2022/04/07 08:37:18;;;;;;;1.10;0.70;;;;;;;;;;4993235;28;21020;-81
2022/04/07 08:39:45;;;;;;;1.47;0.90;;;;;;;;;;4992982;28;20459;-81
2022/04/07 08:42:13;;;;;;;1.13;0.90;;;;;;;;;;4992080;28;20451;-81
2022/04/07 08:44:40;;;;;;;1.63;0.80;;;;;;;;;;4999354;28;20533;-80
2022/04/07 08:47:07;;;;;;;3.83;0.90;;;;;;;;;;4991385;28;20432;-80
2022/04/07 08:49:38;;;;;;;1.27;0.83;;;;;;;;;;5002481;28;20491;-82
2022/04/07 08:52:08;;;;;;;1.87;0.93;;;;;;;;;;4998325;28;20514;-80
2022/04/07 08:54:37;;;;;;;1.10;0.80;;;;;;;;;;5007557;28;20616;-80
2022/04/07 08:57:05;;;;;;;1.67;1.07;;;;;;;;;;4999428;28;20880;-79
2022/04/07 08:59:32;;;;;;;0.93;0.80;;;;;;;;;;4992474;28;20452;-80
2022/04/07 09:02:02;;;;;;;2.67;1.10;;;;;;;;;;4992313;28;20845;-81
2022/04/07 09:04:31;;;;;;;1.00;0.90;;;;;;;;;;4980985;28;20985;-82
2022/04/07 09:07:01;;;;;;;1.07;0.97;;;;;;;;;;4992218;28;20550;-82
2022/04/07 09:09:32;;;;;;;4.93;1.00;;;;;;;;;;4992780;28;20490;-82
2022/04/07 09:12:00;;;;;;;1.20;0.87;;;;;;;;;;4995260;28;20450;-80
2022/04/07 09:14:28;;;;;;;1.07;0.90;;;;;;;;;;4996872;28;20464;-80
2022/04/07 09:16:55;;;;;;;1.30;1.00;;;;;;;;;;5003044;28;20441;-82
2022/04/07 09:19:26;;;;;;;1.33;0.90;;;;;;;;;;5011802;28;20458;-80
2022/04/07 09:22:05;;;;;;;1.10;0.90;;;;;;;;;;5011944;28;20801;-80
2022/04/07 09:24:35;;;;;;;1.27;0.90;;;;;;;;;;5006605;28;20433;-79
2022/04/07 09:27:06;;;;;;;2.47;1.00;;;;;;;;;;4990444;28;20446;-80
2022/04/07 09:29:44;;;;;;;1.13;0.90;;;;;;;;;;4993218;28;21278;-80
2022/04/07 09:32:19;;;;;;;1.17;1.03;;;;;;;;;;4994299;28;20447;-80
2022/04/07 09:34:46;;;;;;;1.80;1.07;;;;;;;;;;4992229;28;20462;-80
2022/04/07 09:37:16;;;;;;;1.00;0.73;;;;;;;;;;4998390;28;20454;-80
2022/04/07 09:39:44;;;;;;;1.00;0.80;;;;;;;;;;4994672;28;20563;-78
2022/04/07 09:42:20;;;;;;;2.20;1.03;;;;;;;;;;4991486;28;20526;-79
2022/04/07 09:44:51;;;;;;;1.10;0.80;;;;;;;;;;4987316;28;20855;-78
2022/04/07 09:47:21;;;;;;;1.00;0.70;;;;;;;;;;4988794;28;20444;-78
2022/04/07 09:49:49;;;;;;;1.10;0.90;;;;;;;;;;4988413;28;20514;-78
2022/04/07 09:52:20;;;;;;;1.67;0.80;;;;;;;;;;4971587;28;20871;-78
2022/04/07 09:54:49;;;;;;;1.10;0.80;;;;;;;;;;4973121;28;20461;-81
2022/04/07 09:57:18;;;;;;;1.40;0.70;;;;;;;;;;4975087;28;20455;-78
2022/04/07 09:59:47;;;;;;;3.73;1.63;;;;;;;;;;4967311;28;20994;-79
2022/04/07 10:02:15;;;;;;;1.07;0.97;;;;;;;;;;4966930;28;20815;-78
2022/04/07 10:04:42;;;;;;;1.80;1.23;;;;;;;;;;4968990;28;20449;-78
2022/04/07 10:07:11;;;;;;;1.47;1.00;;;;;;;;;;4968879;28;20440;-79
2022/04/07 10:09:40;;;;;;;2.77;1.37;;;;;;;;;;4968990;28;20507;-78
2022/04/07 10:12:09;;;;;;;1.10;0.87;;;;;;;;;;4970545;28;20453;-74
2022/04/07 10:14:37;;;;;;;1.33;0.90;;;;;;;;;;4970273;28;20453;-75
2022/04/07 10:17:06;;;;;;;1.30;0.90;;;;;;;;;;4974136;28;21185;-79
2022/04/07 10:19:35;;;;;;;1.00;0.90;;;;;;;;;;4974222;28;20485;-80
2022/04/07 10:22:14;;;;;;;1.97;0.90;;;;;;;;;;4968697;28;20453;-78
2022/04/07 10:24:45;;;;;;;1.00;0.80;;;;;;;;;;4968716;28;20467;-78
2022/04/07 10:27:14;;;;;;;1.80;1.07;;;;;;;;;;4968513;28;21044;-81
2022/04/07 10:29:42;;;;;;;2.63;1.13;;;;;;;;;;4968994;28;20572;-80
2022/04/07 10:32:24;;;;;;;1.10;0.90;;;;;;;;;;4968180;28;20468;-78
2022/04/07 10:34:56;;;;;;;3.17;1.20;;;;;;;;;;4969044;28;20452;-78
2022/04/07 10:37:38;;;;;;;2.80;1.20;;;;;;;;;;4972972;28;20444;-79
2022/04/07 10:40:20;;;;;;;1.67;1.07;;;;;;;;;;4977379;28;20444;-79
2022/04/07 10:43:03;;;;;;;1.50;1.00;;;;;;;;;;4979683;28;20435;-79
2022/04/07 10:45:33;;;;;;;1.30;0.90;;;;;;;;;;4986025;28;20448;-80
2022/04/07 10:48:15;;;;;;;2.93;1.20;;;;;;;;;;4986265;28;20468;-80
2022/04/07 10:50:48;;;;;;;1.67;1.20;;;;;;;;;;4985874;28;21001;-81
2022/04/07 10:53:19;;;;;;;1.47;1.00;;;;;;;;;;4987742;28;20869;-76
2022/04/07 10:55:54;;;;;;;2.50;1.57;;;;;;;;;;4988088;28;20913;-78
2022/04/07 10:58:24;;;;;;;1.73;1.10;;;;;;;;;;4990774;28;20466;-79
2022/04/07 11:00:53;;;;;;;1.63;1.40;;;;;;;;;;4987129;28;20527;-78
2022/04/07 11:03:20;;;;;;;2.23;1.30;;;;;;;;;;4968538;28;20503;-82
2022/04/07 11:06:00;;;;;;;1.80;1.10;;;;;;;;;;4969512;28;20449;-81
2022/04/07 11:08:30;;;;;;;3.10;1.60;;;;;;;;;;4968085;28;20472;-81
2022/04/07 11:10:57;;;;;;;1.50;1.23;;;;;;;;;;4973038;28;20495;-82
2022/04/07 11:13:39;;;;;;;3.47;1.37;;;;;;;;;;4990987;28;20474;-82
2022/04/07 11:16:14;;;;;;;2.07;1.27;;;;;;;;;;4977242;28;20444;-81
2022/04/07 11:18:49;;;;;;;1.57;1.10;;;;;;;;;;4993344;28;20509;-81
2022/04/07 11:21:18;;;;;;;1.10;1.00;;;;;;;;;;4996343;28;20463;-85
2022/04/07 11:23:52;;;;;;;5.27;2.60;;;;;;;;;;5001618;28;20436;-82
2022/04/07 11:26:22;;;;;;;1.63;1.50;;;;;;;;;;5009785;28;20469;-79
2022/04/07 11:29:03;;;;;;;1.50;1.10;;;;;;;;;;4991058;28;20485;-80
2022/04/07 11:31:54;;;;;;;3.03;1.30;;;;;;;;;;5005229;28;20446;-78
2022/04/07 11:34:37;;;;;;;1.43;0.90;;;;;;;;;;4990383;28;20451;-77
2022/04/07 11:37:08;;;;;;;1.87;1.23;;;;;;;;;;4973724;28;20456;-78
2022/04/07 11:39:46;;;;;;;1.43;1.30;;;;;;;;;;4988172;28;20546;-78
2022/04/07 11:45:05;;;;;;;2.50;1.10;;;;;;;;;;4991827;28;20432;-79
2022/04/07 11:47:35;;;;;;;2.97;1.40;;;;;;;;;;4985983;28;20455;-79
2022/04/07 11:50:10;;;;;;;1.20;1.03;;;;;;;;;;4985691;28;20487;-77
2022/04/07 12:02:02;;;;;;;1.83;1.30;;;;;;;;;;4932787;28;20480;-78
2022/04/07 12:04:34;;;;;;;2.53;1.13;;;;;;;;;;4967479;28;20436;-82
2022/04/07 12:07:02;;;;;;;1.50;1.20;;;;;;;;;;4998518;28;20435;-80
2022/04/07 12:09:29;;;;;;;3.57;1.20;;;;;;;;;;5006343;28;20486;-82
2022/04/07 12:11:56;;;;;;;1.27;1.10;;;;;;;;;;5010670;28;20442;-81
2022/04/07 12:14:26;;;;;;;2.83;1.20;;;;;;;;;;5010463;28;20446;-80
2022/04/07 12:16:54;;;;;;;1.30;1.10;;;;;;;;;;5010974;28;20918;-80
2022/04/07 12:19:22;;;;;;;4.83;1.40;;;;;;;;;;5009208;28;20473;-83
2022/04/07 12:21:52;;;;;;;2.90;1.30;;;;;;;;;;4992784;28;20448;-82
2022/04/07 12:24:19;;;;;;;2.80;1.07;;;;;;;;;;4992885;28;20857;-77
2022/04/07 12:26:47;;;;;;;2.67;1.67;;;;;;;;;;4995826;28;20913;-79
2022/04/07 12:29:15;;;;;;;3.80;1.67;;;;;;;;;;4997922;28;20451;-78
2022/04/07 12:31:42;;;;;;;2.73;1.37;;;;;;;;;;5005634;28;20450;-77
2022/04/07 12:34:11;;;;;;;3.30;1.87;;;;;;;;;;5010241;28;20453;-77
2022/04/07 12:36:41;;;;;;;3.37;1.40;;;;;;;;;;5010507;28;20450;-78
2022/04/07 12:39:09;;;;;;;5.43;1.93;;;;;;;;;;5010884;28;20517;-79
2022/04/07 12:41:38;;;;;;;2.73;1.50;;;;;;;;;;5009505;28;20443;-78
2022/04/07 12:44:05;;;;;;;4.13;2.10;;;;;;;;;;4992712;28;20467;-78
2022/04/07 12:46:44;;;;;;;2.73;1.60;;;;;;;;;;4992579;28;20440;-79
2022/04/07 12:49:11;;;;;;;4.10;1.93;;;;;;;;;;4978579;28;20820;-79
2022/04/07 12:51:40;;;;;;;3.90;1.50;;;;;;;;;;4998107;28;20483;-79
2022/04/07 12:54:09;;;;;;;4.00;1.60;;;;;;;;;;4976125;28;20453;-79
2022/04/07 12:56:37;;;;;;;5.93;1.73;;;;;;;;;;4990329;28;20482;-78
2022/04/07 12:59:07;;;;;;;3.50;1.70;;;;;;;;;;4990325;28;20538;-79
2022/04/07 13:01:34;;;;;;;2.90;1.80;;;;;;;;;;4990919;28;20447;-78
2022/04/07 13:04:04;;;;;;;4.10;1.90;;;;;;;;;;4990499;28;20450;-77
2022/04/07 13:06:32;;;;;;;4.50;1.60;;;;;;;;;;4973107;28;20472;-79
2022/04/07 13:09:01;;;;;;;5.13;2.20;;;;;;;;;;4973896;28;20857;-78
2022/04/07 13:11:32;;;;;;;2.57;1.60;;;;;;;;;;4988380;28;20490;-78
2022/04/07 13:13:59;;;;;;;4.87;2.20;;;;;;;;;;5001024;28;20486;-78
2022/04/07 13:16:26;;;;;;;5.10;1.50;;;;;;;;;;5007399;28;20459;-78
2022/04/07 13:18:53;;;;;;;4.13;1.53;;;;;;;;;;5013288;28;20462;-78
2022/04/07 13:21:21;;;;;;;4.30;2.07;;;;;;;;;;5013258;28;20435;-78
2022/04/07 13:23:48;;;;;;;2.33;1.47;;;;;;;;;;5013442;28;20486;-77
2022/04/07 13:26:17;;;;;;;6.60;2.10;;;;;;;;;;5013424;28;20873;-79
2022/04/07 13:28:44;;;;;;;7.27;2.10;;;;;;;;;;4996464;28;20560;-79
2022/04/07 13:31:11;;;;;;;7.17;2.00;;;;;;;;;;4995543;28;20491;-77
2022/04/07 13:33:38;;;;;;;4.27;1.73;;;;;;;;;;4978023;28;20458;-78
2022/04/07 13:36:07;;;;;;;4.07;1.60;;;;;;;;;;4993969;28;20925;-79
2022/04/07 13:38:34;;;;;;;6.60;2.13;;;;;;;;;;4997680;28;20487;-78
2022/04/07 13:41:03;;;;;;;3.03;1.70;;;;;;;;;;4993277;28;20930;-78
2022/04/07 13:43:31;;;;;;;3.27;1.83;;;;;;;;;;4976087;28;20452;-78
2022/04/07 13:45:59;;;;;;;2.63;1.40;;;;;;;;;;4993415;28;20447;-78
2022/04/07 13:48:27;;;;;;;2.53;1.50;;;;;;;;;;4993673;28;20456;-79
2022/04/07 13:50:55;;;;;;;7.63;2.17;;;;;;;;;;4994167;28;20492;-78
2022/04/07 13:53:22;;;;;;;11.53;2.70;;;;;;;;;;4977951;28;20452;-78
2022/04/07 13:55:49;;;;;;;7.20;1.93;;;;;;;;;;4996137;28;20970;-78
2022/04/07 13:58:16;;;;;;;4.30;2.07;;;;;;;;;;5000149;28;20973;-78
2022/04/07 14:00:45;;;;;;;5.10;2.27;;;;;;;;;;5003564;28;20444;-78
2022/04/07 14:03:12;;;;;;;3.57;2.00;;;;;;;;;;5012642;28;20443;-79
2022/04/07 14:05:39;;;;;;;6.40;1.80;;;;;;;;;;5012348;28;20452;-78
2022/04/07 14:08:08;;;;;;;5.63;2.67;;;;;;;;;;5012628;28;20481;-78
2022/04/07 14:10:36;;;;;;;5.60;2.47;;;;;;;;;;5012799;28;20483;-78
2022/04/07 14:13:03;;;;;;;11.30;2.63;;;;;;;;;;5001641;28;20817;-78
2022/04/07 14:15:32;;;;;;;7.93;2.60;;;;;;;;;;4994901;28;20531;-78
2022/04/07 14:18:01;;;;;;;5.27;2.60;;;;;;;;;;4994574;28;20475;-79
2022/04/07 14:20:28;;;;;;;8.33;2.80;;;;;;;;;;4998959;28;20431;-79
2022/04/07 14:22:58;;;;;;;8.60;2.60;;;;;;;;;;5000020;28;20440;-80
2022/04/07 14:25:26;;;;;;;4.47;2.63;;;;;;;;;;4992163;28;20499;-79
2022/04/07 14:27:53;;;;;;;5.87;2.33;;;;;;;;;;4992255;28;20571;-77
2022/04/07 14:30:23;;;;;;;7.13;2.67;;;;;;;;;;4992217;28;20490;-79
2022/04/07 14:32:50;;;;;;;8.80;3.20;;;;;;;;;;4992944;28;20453;-79
2022/04/07 14:35:19;;;;;;;6.40;2.40;;;;;;;;;;4993123;28;20459;-82
2022/04/07 14:37:46;;;;;;;7.70;2.40;;;;;;;;;;4994303;28;20474;-79
2022/04/07 14:40:13;;;;;;;9.27;3.27;;;;;;;;;;4994425;28;20444;-77
2022/04/07 14:42:40;;;;;;;8.30;2.07;;;;;;;;;;4998705;28;20453;-78
2022/04/07 14:45:08;;;;;;;5.97;2.20;;;;;;;;;;4999828;28;20439;-78
2022/04/07 14:47:36;;;;;;;5.47;2.10;;;;;;;;;;4992308;28;21071;-79
2022/04/07 14:50:03;;;;;;;6.00;1.97;;;;;;;;;;4974445;28;20443;-80
2022/04/07 14:52:32;;;;;;;4.37;1.80;;;;;;;;;;4992080;28;20450;-81
2022/04/07 14:54:59;;;;;;;6.80;2.57;;;;;;;;;;4992348;28;20516;-81
2022/04/07 14:57:26;;;;;;;6.27;2.03;;;;;;;;;;4991985;28;20471;-82
2022/04/07 14:59:54;;;;;;;13.83;2.43;;;;;;;;;;4994043;28;20456;-80
2022/04/07 15:02:21;;;;;;;4.60;2.20;;;;;;;;;;4993879;28;20447;-81
2022/04/07 15:04:51;;;;;;;4.40;1.80;;;;;;;;;;4997144;28;20456;-81